Time;durP1;ratioP1;P1;durP2;ratioP2;P2;SDS_P1;SDS_P2;PMS_P1;PMS_P2;Temp;Humidity;BMP_temperature;BMP_pressure;BME280_temperature;BME280_humidity;BME280_pressure;Samples;Min_cycle;Max_cycle;Signal;HPM_P1;HPM_P2
2021/05/25 00:00:19;;;;;;;9.23;4.00;;;10.10;99.90;;;;;;4994104;28;20190;-86
2021/05/25 00:02:46;;;;;;;10.90;4.47;;;10.10;99.90;;;;;;4992108;28;20201;-86
2021/05/25 00:05:16;;;;;;;10.37;4.13;;;10.10;99.90;;;;;;4985166;28;20189;-86
2021/05/25 00:07:42;;;;;;;9.53;4.47;;;9.90;99.90;;;;;;4981900;28;20189;-86
2021/05/25 00:10:08;;;;;;;8.87;4.37;;;9.80;99.90;;;;;;4991816;28;20179;-87
2021/05/25 00:12:34;;;;;;;9.47;3.83;;;9.80;99.90;;;;;;4992207;28;20170;-86
2021/05/25 00:15:05;;;;;;;9.57;3.90;;;9.80;99.90;;;;;;4988913;28;20210;-86
2021/05/25 00:17:31;;;;;;;12.57;3.80;;;9.80;99.90;;;;;;4985604;28;20640;-86
2021/05/25 00:19:56;;;;;;;8.47;3.77;;;9.80;99.90;;;;;;4976249;28;20250;-86
2021/05/25 00:22:22;;;;;;;6.17;3.10;;;9.80;99.90;;;;;;4977608;28;20244;-87
2021/05/25 00:24:48;;;;;;;7.90;3.90;;;9.90;99.90;;;;;;4978920;28;20184;-86
2021/05/25 00:27:14;;;;;;;6.43;3.10;;;9.80;99.90;;;;;;4978939;28;20197;-86
2021/05/25 00:29:40;;;;;;;7.63;3.40;;;9.80;99.90;;;;;;4991690;28;20181;-87
2021/05/25 00:32:06;;;;;;;8.10;3.37;;;9.90;99.90;;;;;;4976991;28;20179;-86
2021/05/25 00:34:32;;;;;;;6.80;2.70;;;9.90;99.90;;;;;;4976243;28;20215;-87
2021/05/25 00:36:57;;;;;;;6.53;3.13;;;9.90;99.90;;;;;;4988346;28;20194;-86
2021/05/25 00:39:23;;;;;;;6.37;2.47;;;9.80;99.90;;;;;;4977772;28;20245;-86
2021/05/25 00:41:48;;;;;;;8.43;2.70;;;9.80;99.90;;;;;;4975664;28;20548;-86
2021/05/25 00:44:14;;;;;;;5.97;2.70;;;9.80;99.90;;;;;;4974441;28;20190;-87
2021/05/25 00:46:40;;;;;;;3.67;2.03;;;9.80;99.90;;;;;;4976646;28;20647;-86
2021/05/25 00:49:06;;;;;;;3.50;2.20;;;9.80;99.90;;;;;;4977985;28;20265;-86
2021/05/25 00:51:33;;;;;;;4.37;2.00;;;9.80;99.90;;;;;;4974065;28;20206;-87
2021/05/25 00:53:59;;;;;;;6.60;3.20;;;9.80;99.90;;;;;;4992823;28;20185;-86
2021/05/25 00:56:25;;;;;;;4.80;1.97;;;9.80;99.90;;;;;;4990904;28;20186;-87
2021/05/25 00:58:52;;;;;;;6.23;2.17;;;9.90;99.90;;;;;;4985707;28;20181;-86
2021/05/25 01:01:18;;;;;;;5.17;1.93;;;9.70;99.90;;;;;;4986957;28;20193;-86
2021/05/25 01:03:44;;;;;;;5.23;2.23;;;9.60;99.90;;;;;;4980302;28;20643;-86
2021/05/25 01:06:10;;;;;;;3.60;1.83;;;9.50;99.90;;;;;;4990374;28;20180;-86
2021/05/25 01:08:38;;;;;;;7.87;2.63;;;9.60;99.90;;;;;;5000843;28;20797;-86
2021/05/25 01:11:10;;;;;;;3.07;1.40;;;9.70;99.90;;;;;;5005012;28;20174;-86
2021/05/25 01:13:49;;;;;;;5.10;2.20;;;9.70;99.90;;;;;;4976980;28;20189;-87
2021/05/25 01:16:16;;;;;;;3.90;1.87;;;9.70;99.90;;;;;;4987183;28;20210;-86
2021/05/25 01:18:42;;;;;;;3.97;2.07;;;9.70;99.90;;;;;;4990004;28;20170;-86
2021/05/25 01:21:11;;;;;;;4.27;2.00;;;9.80;99.90;;;;;;4981926;28;20272;-86
2021/05/25 01:23:38;;;;;;;2.93;1.67;;;9.70;99.90;;;;;;4988029;28;20657;-86
2021/05/25 01:26:05;;;;;;;3.93;2.00;;;9.70;99.90;;;;;;4995642;28;20253;-86
2021/05/25 01:28:33;;;;;;;7.47;2.47;;;9.60;99.90;;;;;;4994291;28;20241;-86
2021/05/25 01:31:01;;;;;;;7.00;1.87;;;9.60;99.90;;;;;;4995584;28;20181;-86
2021/05/25 01:33:29;;;;;;;5.83;2.10;;;9.60;99.90;;;;;;4993193;28;20186;-85
2021/05/25 01:35:55;;;;;;;3.97;1.97;;;9.60;99.90;;;;;;4983420;28;20210;-86
2021/05/25 01:38:22;;;;;;;4.73;1.77;;;9.70;99.90;;;;;;4978147;28;20238;-86
2021/05/25 01:40:47;;;;;;;6.03;2.20;;;9.70;99.90;;;;;;4987984;28;20214;-86
2021/05/25 01:43:14;;;;;;;3.90;1.77;;;9.70;99.90;;;;;;4982437;28;20188;-86
2021/05/25 01:45:41;;;;;;;3.73;1.83;;;9.70;99.90;;;;;;4990235;28;20186;-86
2021/05/25 01:48:09;;;;;;;3.20;1.90;;;9.70;99.90;;;;;;4979306;28;20274;-85
2021/05/25 01:50:37;;;;;;;5.13;2.33;;;9.70;99.90;;;;;;4977031;28;20278;-86
2021/05/25 01:53:08;;;;;;;3.47;1.90;;;9.80;99.90;;;;;;4980217;28;20208;-86
2021/05/25 01:55:46;;;;;;;5.27;1.90;;;9.80;99.90;;;;;;4987578;28;20221;-86
2021/05/25 01:58:13;;;;;;;8.50;2.13;;;9.70;99.90;;;;;;4990266;28;20177;-86
2021/05/25 02:00:42;;;;;;;5.43;1.80;;;9.70;99.90;;;;;;4991744;28;20209;-86
2021/05/25 02:03:08;;;;;;;2.50;1.67;;;9.80;99.90;;;;;;4984251;28;20194;-86
2021/05/25 02:05:36;;;;;;;5.57;1.73;;;9.70;99.90;;;;;;4978622;28;20278;-86
2021/05/25 02:08:03;;;;;;;5.80;1.70;;;9.80;99.90;;;;;;4986754;28;20185;-86
2021/05/25 02:10:36;;;;;;;5.50;1.70;;;9.80;99.90;;;;;;4986979;28;20199;-87
2021/05/25 02:13:07;;;;;;;3.97;1.33;;;9.90;99.90;;;;;;4986256;28;20727;-86
2021/05/25 02:15:33;;;;;;;5.07;1.43;;;10.00;99.90;;;;;;4982439;28;20217;-86
2021/05/25 02:18:09;;;;;;;6.67;1.97;;;10.00;99.90;;;;;;4988485;28;20233;-87
2021/05/25 02:20:35;;;;;;;4.10;1.97;;;10.00;99.90;;;;;;4982560;28;20184;-87
2021/05/25 02:23:02;;;;;;;2.63;1.80;;;9.90;99.90;;;;;;4977352;28;20186;-86
2021/05/25 02:25:29;;;;;;;4.00;1.97;;;10.00;99.90;;;;;;4982902;28;20197;-87
2021/05/25 02:27:56;;;;;;;7.00;2.30;;;10.00;99.90;;;;;;4992555;28;20273;-87
2021/05/25 02:30:22;;;;;;;5.03;1.87;;;10.00;99.90;;;;;;4986474;28;20182;-86
2021/05/25 02:32:49;;;;;;;6.03;2.73;;;10.00;99.90;;;;;;4980691;28;20199;-86
2021/05/25 02:35:15;;;;;;;5.60;2.53;;;10.00;99.90;;;;;;4994874;28;20228;-86
2021/05/25 02:37:41;;;;;;;4.90;2.20;;;10.00;99.90;;;;;;4995593;28;20179;-86
2021/05/25 02:40:08;;;;;;;2.80;2.50;;;10.00;99.90;;;;;;4992612;28;20260;-87
2021/05/25 02:42:33;;;;;;;4.83;2.60;;;10.00;99.90;;;;;;4986628;28;20636;-86
2021/05/25 02:44:59;;;;;;;5.20;2.60;;;10.00;99.90;;;;;;4985618;28;20237;-86
2021/05/25 02:47:25;;;;;;;6.83;2.90;;;10.10;99.90;;;;;;4987809;28;20199;-86
2021/05/25 02:49:51;;;;;;;4.07;2.73;;;10.10;99.90;;;;;;4986216;28;20273;-86
2021/05/25 02:52:17;;;;;;;5.83;3.17;;;10.10;99.90;;;;;;4977205;28;20207;-87
2021/05/25 02:54:42;;;;;;;3.30;3.00;;;10.10;99.90;;;;;;4981000;28;20678;-86
2021/05/25 02:57:08;;;;;;;7.13;3.43;;;10.20;99.90;;;;;;4980977;28;20270;-87
2021/05/25 02:59:35;;;;;;;6.63;2.70;;;10.00;99.90;;;;;;4991261;28;20172;-86
2021/05/25 03:02:00;;;;;;;4.63;2.93;;;10.10;99.90;;;;;;4984871;28;20281;-87
2021/05/25 03:04:26;;;;;;;7.10;3.30;;;10.10;99.90;;;;;;4985720;28;20321;-86
2021/05/25 03:06:52;;;;;;;9.90;4.27;;;10.00;99.90;;;;;;4979870;28;20632;-88
2021/05/25 03:09:17;;;;;;;6.53;3.80;;;10.00;99.90;;;;;;4986489;28;20286;-88
2021/05/25 03:11:44;;;;;;;11.80;4.10;;;9.70;99.90;;;;;;4986226;28;20182;-88
2021/05/25 03:14:10;;;;;;;8.80;3.70;;;9.40;99.90;;;;;;4991372;28;20262;-89
2021/05/25 03:16:36;;;;;;;10.07;3.90;;;9.30;99.90;;;;;;4985603;28;20376;-88
2021/05/25 03:19:02;;;;;;;4.87;4.20;;;9.40;99.90;;;;;;4978260;28;20660;-88
2021/05/25 03:21:28;;;;;;;9.30;5.00;;;9.40;99.90;;;;;;4975490;28;20194;-88
2021/05/25 03:23:54;;;;;;;12.40;5.13;;;9.40;99.90;;;;;;4975914;28;20647;-88
2021/05/25 03:26:21;;;;;;;7.37;5.00;;;9.40;99.90;;;;;;4985551;28;20186;-88
2021/05/25 03:28:48;;;;;;;7.37;5.33;;;9.50;99.90;;;;;;4992188;28;20182;-88
2021/05/25 03:31:14;;;;;;;7.20;5.00;;;9.40;99.90;;;;;;4994998;28;20181;-88
2021/05/25 03:33:40;;;;;;;12.47;5.97;;;9.40;99.90;;;;;;4994284;28;20665;-87
2021/05/25 03:36:06;;;;;;;14.07;6.73;;;9.40;99.90;;;;;;4984589;28;20291;-87
2021/05/25 03:38:31;;;;;;;9.57;6.03;;;9.40;99.90;;;;;;4993890;28;20225;-88
2021/05/25 03:40:57;;;;;;;8.27;6.23;;;9.40;99.90;;;;;;4993667;28;20275;-88
2021/05/25 03:43:22;;;;;;;8.17;6.37;;;9.40;99.90;;;;;;4993639;28;20596;-87
2021/05/25 03:45:48;;;;;;;9.47;6.70;;;9.30;99.90;;;;;;4980493;28;20190;-88
2021/05/25 03:48:14;;;;;;;11.07;6.40;;;9.40;99.90;;;;;;4975175;28;20653;-88
2021/05/25 03:50:40;;;;;;;11.10;6.70;;;9.40;99.90;;;;;;4977493;28;20624;-88
2021/05/25 03:53:06;;;;;;;9.77;7.67;;;9.50;99.90;;;;;;4988760;28;20193;-87
2021/05/25 03:55:44;;;;;;;10.80;7.30;;;9.60;99.90;;;;;;4992035;28;20802;-86
2021/05/25 04:00:55;;;;;;;10.57;6.93;;;9.70;99.90;;;;;;4976411;28;20200;-87
2021/05/25 04:03:21;;;;;;;8.37;6.77;;;9.70;99.90;;;;;;4987823;28;20189;-87
2021/05/25 04:05:47;;;;;;;10.80;6.50;;;9.60;99.90;;;;;;4986348;28;20189;-86
2021/05/25 04:08:14;;;;;;;11.93;7.13;;;9.60;99.90;;;;;;4985713;28;20187;-87
2021/05/25 04:10:40;;;;;;;9.73;6.90;;;9.50;99.90;;;;;;4975029;28;20237;-88
2021/05/25 04:13:06;;;;;;;16.37;7.50;;;9.50;99.90;;;;;;4975071;28;20179;-86
2021/05/25 04:15:34;;;;;;;10.73;7.83;;;9.50;99.90;;;;;;4980035;28;20736;-86
2021/05/25 04:18:00;;;;;;;11.23;8.23;;;9.60;99.90;;;;;;4988336;28;20172;-87
2021/05/25 04:20:26;;;;;;;10.10;7.20;;;9.70;99.90;;;;;;4991787;28;20189;-88
2021/05/25 04:22:51;;;;;;;26.73;8.40;;;9.60;99.90;;;;;;4989380;28;20179;-88
2021/05/25 04:25:17;;;;;;;13.73;7.47;;;9.50;99.90;;;;;;4992810;28;20201;-87
2021/05/25 04:27:43;;;;;;;13.13;6.60;;;9.40;99.90;;;;;;4997756;28;20206;-87
2021/05/25 04:30:09;;;;;;;13.77;6.40;;;9.40;99.90;;;;;;4983671;28;20178;-88
2021/05/25 04:32:35;;;;;;;8.63;6.00;;;9.30;99.90;;;;;;4993174;28;20213;-87
2021/05/25 04:35:01;;;;;;;11.87;6.03;;;9.40;99.90;;;;;;4977106;28;20218;-86
2021/05/25 04:37:27;;;;;;;11.47;6.30;;;9.50;99.90;;;;;;4981735;28;20623;-87
2021/05/25 04:39:53;;;;;;;12.67;6.80;;;9.60;99.90;;;;;;4986822;28;20198;-87
2021/05/25 04:42:20;;;;;;;9.90;6.80;;;9.70;99.90;;;;;;4981986;28;20221;-88
2021/05/25 04:44:46;;;;;;;15.63;8.93;;;9.80;99.90;;;;;;4976920;28;20188;-86
2021/05/25 04:47:11;;;;;;;12.57;8.10;;;9.80;99.90;;;;;;4978958;28;20195;-86
2021/05/25 04:49:39;;;;;;;15.17;9.10;;;9.90;99.90;;;;;;4984052;28;20188;-87
2021/05/25 04:52:05;;;;;;;14.70;10.50;;;9.90;99.90;;;;;;4990762;28;20182;-87
2021/05/25 04:54:31;;;;;;;16.33;12.70;;;9.80;99.90;;;;;;4984013;28;20212;-86
2021/05/25 04:56:57;;;;;;;20.30;11.07;;;9.80;99.90;;;;;;4980586;28;20187;-87
2021/05/25 04:59:23;;;;;;;20.47;11.67;;;9.70;99.90;;;;;;4991425;28;20275;-87
2021/05/25 05:01:49;;;;;;;22.20;11.70;;;9.80;99.90;;;;;;4993374;28;20187;-86
2021/05/25 05:04:14;;;;;;;19.77;12.03;;;9.80;99.90;;;;;;4991440;28;20729;-87
2021/05/25 05:06:40;;;;;;;19.17;11.63;;;9.70;99.90;;;;;;4980943;28;20278;-86
2021/05/25 05:09:07;;;;;;;17.13;12.30;;;9.60;99.90;;;;;;4975173;28;20178;-87
2021/05/25 05:11:32;;;;;;;19.30;13.33;;;9.70;99.90;;;;;;4973980;28;20170;-86
2021/05/25 05:13:59;;;;;;;18.87;12.67;;;9.80;99.90;;;;;;4975348;28;20243;-87
2021/05/25 05:16:25;;;;;;;22.07;12.90;;;10.00;99.90;;;;;;4977599;28;20691;-87
2021/05/25 05:18:51;;;;;;;23.97;13.43;;;10.00;99.90;;;;;;4988259;28;20182;-87
2021/05/25 05:21:17;;;;;;;20.67;13.37;;;10.00;99.90;;;;;;4982891;28;20277;-86
2021/05/25 05:23:43;;;;;;;21.97;13.83;;;10.00;99.90;;;;;;4975873;28;20729;-87
2021/05/25 05:26:09;;;;;;;21.50;13.97;;;10.00;99.90;;;;;;4974083;28;20183;-86
2021/05/25 05:28:34;;;;;;;21.30;13.93;;;10.00;99.90;;;;;;4974294;28;20550;-86
2021/05/25 05:31:00;;;;;;;22.13;14.40;;;10.00;99.90;;;;;;4988688;28;20316;-86
2021/05/25 05:33:27;;;;;;;23.10;14.23;;;10.00;99.90;;;;;;4989316;28;20215;-86
2021/05/25 05:35:53;;;;;;;22.67;14.90;;;9.90;99.90;;;;;;4982750;28;20215;-86
2021/05/25 05:38:19;;;;;;;27.13;14.90;;;10.00;99.90;;;;;;4994533;28;20193;-86
2021/05/25 05:40:44;;;;;;;27.30;16.70;;;10.20;99.90;;;;;;4977206;28;20289;-86
2021/05/25 05:43:10;;;;;;;24.03;17.17;;;10.30;99.90;;;;;;4986900;28;20711;-90
2021/05/25 05:45:37;;;;;;;27.00;17.07;;;10.30;99.90;;;;;;4984559;28;20196;-90
2021/05/25 05:48:04;;;;;;;27.80;17.50;;;10.30;99.90;;;;;;4989044;28;20186;-90
2021/05/25 05:50:30;;;;;;;23.90;15.67;;;10.40;99.90;;;;;;4989356;28;20180;-90
2021/05/25 05:52:56;;;;;;;24.47;14.83;;;10.40;99.90;;;;;;4974768;28;20210;-90
2021/05/25 05:55:22;;;;;;;23.47;15.40;;;10.50;99.90;;;;;;4974374;28;20214;-90
2021/05/25 05:57:52;;;;;;;18.03;13.23;;;10.50;99.90;;;;;;4988332;28;20195;-90
2021/05/25 06:00:19;;;;;;;18.13;13.00;;;10.50;99.90;;;;;;4994724;28;20278;-88
2021/05/25 06:02:45;;;;;;;22.40;11.63;;;10.30;99.90;;;;;;4986867;28;20214;-90
2021/05/25 06:05:12;;;;;;;15.70;10.93;;;10.20;99.90;;;;;;4983452;28;20179;-89
2021/05/25 06:07:37;;;;;;;16.17;10.63;;;10.10;99.90;;;;;;4984647;28;20195;-90
2021/05/25 06:10:05;;;;;;;16.57;10.77;;;10.00;99.90;;;;;;4977057;28;20631;-90
2021/05/25 06:12:31;;;;;;;12.17;8.57;;;10.00;99.90;;;;;;4986156;28;20569;-90
2021/05/25 06:14:56;;;;;;;12.43;7.90;;;10.00;99.90;;;;;;4996615;28;20220;-90
2021/05/25 06:17:22;;;;;;;10.77;7.33;;;10.00;99.90;;;;;;4994893;28;20253;-90
2021/05/25 06:19:48;;;;;;;11.93;6.73;;;10.10;99.90;;;;;;4989250;28;20249;-90
2021/05/25 06:22:15;;;;;;;11.90;8.33;;;10.00;99.90;;;;;;4996265;28;20182;-91
2021/05/25 06:24:40;;;;;;;12.37;7.57;;;9.90;99.90;;;;;;4996751;28;20190;-90
2021/05/25 06:27:06;;;;;;;12.23;7.70;;;10.00;99.90;;;;;;4984528;28;20187;-90
2021/05/25 06:29:32;;;;;;;8.73;7.20;;;10.10;99.90;;;;;;4981640;28;20213;-90
2021/05/25 06:32:01;;;;;;;10.63;7.80;;;10.10;99.90;;;;;;4984101;28;20210;-90
2021/05/25 06:34:29;;;;;;;9.13;6.80;;;10.10;99.90;;;;;;4993875;28;20255;-90
2021/05/25 06:36:57;;;;;;;12.33;7.23;;;10.10;99.90;;;;;;4989254;28;20218;-90
2021/05/25 06:39:23;;;;;;;12.23;8.07;;;10.10;99.90;;;;;;4986728;28;20206;-90
2021/05/25 06:41:48;;;;;;;25.93;9.00;;;10.10;99.90;;;;;;4989727;28;20183;-91
2021/05/25 06:44:14;;;;;;;10.53;7.00;;;10.20;99.90;;;;;;4983847;28;20661;-90
2021/05/25 06:46:41;;;;;;;8.37;6.43;;;10.00;99.90;;;;;;4981979;28;20167;-90
2021/05/25 06:49:06;;;;;;;9.33;7.20;;;10.10;99.90;;;;;;4978903;28;20192;-90
2021/05/25 06:51:32;;;;;;;9.50;7.23;;;10.10;99.90;;;;;;4977908;28;20194;-89
2021/05/25 06:53:58;;;;;;;10.43;7.57;;;10.10;99.90;;;;;;4986483;28;20188;-89
2021/05/25 06:56:25;;;;;;;10.93;8.17;;;10.20;99.90;;;;;;4976054;28;20214;-90
2021/05/25 06:58:50;;;;;;;12.57;8.50;;;10.20;99.90;;;;;;4976535;28;20180;-90
2021/05/25 07:01:16;;;;;;;14.37;8.73;;;10.30;99.90;;;;;;4980595;28;20218;-90
2021/05/25 07:03:42;;;;;;;12.90;7.73;;;10.20;99.90;;;;;;4982587;28;20202;-90
2021/05/25 07:06:07;;;;;;;11.90;7.73;;;10.20;99.90;;;;;;4983209;28;20190;-90
2021/05/25 07:08:33;;;;;;;16.17;9.37;;;10.30;99.90;;;;;;4990135;28;20186;-89
2021/05/25 07:10:58;;;;;;;15.10;9.93;;;10.50;99.90;;;;;;4983847;28;20564;-90
2021/05/25 07:13:24;;;;;;;15.87;9.07;;;10.80;99.90;;;;;;4976454;28;20183;-90
2021/05/25 07:15:50;;;;;;;12.90;9.27;;;11.00;99.90;;;;;;4975744;28;20227;-90
2021/05/25 07:18:18;;;;;;;12.70;8.20;;;11.10;99.90;;;;;;4974741;28;20501;-90
2021/05/25 07:20:44;;;;;;;16.23;8.13;;;11.10;99.90;;;;;;4978287;28;20185;-89
2021/05/25 07:23:10;;;;;;;12.03;7.07;;;10.90;99.90;;;;;;4976119;28;20226;-90
2021/05/25 07:25:37;;;;;;;14.27;8.50;;;10.90;99.90;;;;;;4979175;28;20232;-90
2021/05/25 07:28:03;;;;;;;14.50;8.40;;;11.00;99.90;;;;;;4980137;28;20197;-90
2021/05/25 07:30:29;;;;;;;14.23;8.40;;;10.90;99.90;;;;;;4979372;28;20190;-89
2021/05/25 07:32:54;;;;;;;15.37;9.00;;;10.90;99.90;;;;;;4981316;28;20252;-90
2021/05/25 07:35:22;;;;;;;17.20;8.00;;;11.00;99.90;;;;;;4978377;28;20202;-90
2021/05/25 07:37:48;;;;;;;16.33;7.80;;;11.00;99.90;;;;;;4984490;28;20195;-90
2021/05/25 07:40:16;;;;;;;11.53;8.33;;;11.10;99.90;;;;;;4978820;28;20736;-89
2021/05/25 07:42:42;;;;;;;16.37;8.43;;;11.10;99.90;;;;;;4981688;28;20242;-90
2021/05/25 07:45:09;;;;;;;19.43;9.27;;;11.20;99.90;;;;;;4977652;28;20209;-90
2021/05/25 07:47:36;;;;;;;12.53;8.30;;;11.30;99.90;;;;;;4980177;28;20188;-90
2021/05/25 07:50:14;;;;;;;19.47;8.93;;;11.30;99.90;;;;;;4983574;28;20183;-90
2021/05/25 07:52:43;;;;;;;12.43;8.10;;;11.40;99.90;;;;;;4997124;28;20188;-90
2021/05/25 07:55:09;;;;;;;12.57;7.37;;;11.60;99.90;;;;;;4980792;28;20224;-90
2021/05/25 07:57:36;;;;;;;8.67;5.90;;;11.60;99.90;;;;;;4980294;28;20191;-90
2021/05/25 08:00:03;;;;;;;8.83;6.13;;;11.60;99.90;;;;;;4973698;28;20560;-90
2021/05/25 08:02:28;;;;;;;12.47;6.53;;;11.60;99.90;;;;;;4985236;28;20737;-91
2021/05/25 08:04:54;;;;;;;8.07;5.93;;;11.80;99.90;;;;;;4976196;28;20198;-90
2021/05/25 08:07:20;;;;;;;8.53;5.37;;;11.80;99.90;;;;;;4979358;28;20193;-90
2021/05/25 08:09:46;;;;;;;7.87;5.13;;;11.90;99.90;;;;;;4975298;28;20187;-90
2021/05/25 08:12:12;;;;;;;8.40;5.33;;;11.90;99.90;;;;;;4971089;28;20286;-89
2021/05/25 08:14:38;;;;;;;9.27;5.00;;;12.00;99.90;;;;;;4974936;28;20228;-90
2021/05/25 08:17:16;;;;;;;10.70;4.40;;;12.00;99.90;;;;;;4973762;28;20190;-89
2021/05/25 08:19:44;;;;;;;7.10;4.13;;;12.10;99.90;;;;;;4973961;28;20450;-90
2021/05/25 08:22:09;;;;;;;6.73;3.60;;;12.10;99.90;;;;;;4972877;28;20548;-90
2021/05/25 08:24:36;;;;;;;5.47;3.50;;;12.00;99.90;;;;;;4977341;28;20179;-90
2021/05/25 08:27:03;;;;;;;12.93;3.70;;;12.10;99.90;;;;;;4977952;28;20190;-90
2021/05/25 08:29:28;;;;;;;6.73;3.40;;;12.20;99.90;;;;;;4977931;28;20182;-90
2021/05/25 08:31:54;;;;;;;6.90;2.67;;;12.30;99.90;;;;;;4975283;28;20191;-90
2021/05/25 08:34:20;;;;;;;7.57;2.47;;;12.30;99.90;;;;;;4981142;28;20195;-89
2021/05/25 08:36:45;;;;;;;3.87;2.70;;;12.40;99.90;;;;;;4976901;28;20601;-90
2021/05/25 08:39:12;;;;;;;6.67;2.53;;;12.50;99.90;;;;;;4978228;28;20230;-90
2021/05/25 08:41:38;;;;;;;6.97;2.13;;;12.60;99.90;;;;;;4977561;28;20268;-90
2021/05/25 08:44:05;;;;;;;9.40;2.20;;;12.50;99.90;;;;;;4972165;28;20659;-90
2021/05/25 08:46:32;;;;;;;6.50;2.00;;;12.60;99.90;;;;;;4974099;28;20189;-90
2021/05/25 08:48:57;;;;;;;7.07;2.00;;;12.80;99.90;;;;;;4974506;28;20186;-90
2021/05/25 08:51:23;;;;;;;8.30;2.20;;;13.00;99.90;;;;;;4979697;28;20169;-90
2021/05/25 08:53:49;;;;;;;7.03;2.10;;;13.20;99.90;;;;;;4984305;28;20654;-90
2021/05/25 08:56:15;;;;;;;5.10;2.10;;;13.40;99.90;;;;;;4986309;28;20218;-90
2021/05/25 08:58:41;;;;;;;7.37;2.20;;;13.60;99.90;;;;;;4987740;28;20222;-89
2021/05/25 09:01:07;;;;;;;4.97;1.50;;;13.80;99.90;;;;;;4992095;28;20194;-90
2021/05/25 09:03:33;;;;;;;5.73;1.50;;;13.80;99.90;;;;;;4987219;28;20269;-91
2021/05/25 09:06:07;;;;;;;7.20;1.97;;;14.00;99.90;;;;;;4977453;28;20221;-90
2021/05/25 09:08:36;;;;;;;5.13;1.50;;;13.90;99.90;;;;;;4978955;28;20218;-90
2021/05/25 09:11:10;;;;;;;3.40;1.33;;;13.70;99.90;;;;;;4978643;28;20186;-90
2021/05/25 09:13:35;;;;;;;7.13;1.80;;;13.80;99.90;;;;;;4973733;28;20191;-91
2021/05/25 09:16:03;;;;;;;6.23;1.63;;;13.80;99.90;;;;;;4976183;28;20685;-91
2021/05/25 09:18:30;;;;;;;4.03;1.70;;;13.90;99.90;;;;;;4975253;28;20233;-90
2021/05/25 09:21:06;;;;;;;2.77;1.30;;;14.10;99.90;;;;;;4975940;28;20205;-90
2021/05/25 09:23:35;;;;;;;7.27;2.70;;;14.20;99.90;;;;;;4979408;28;20187;-90
2021/05/25 09:26:13;;;;;;;4.67;1.30;;;14.20;99.90;;;;;;4988335;28;20700;-90
2021/05/25 09:28:59;;;;;;;7.57;1.60;;;14.30;99.90;;;;;;4994049;28;20193;-90
2021/05/25 09:31:27;;;;;;;4.00;1.37;;;14.50;99.90;;;;;;4978579;28;20737;-90
2021/05/25 09:34:12;;;;;;;2.57;1.10;;;14.30;99.90;;;;;;4974296;28;20223;-89
2021/05/25 09:37:06;;;;;;;36.17;3.20;;;14.10;99.90;;;;;;4990557;28;20554;-91
2021/05/25 09:39:49;;;;;;;5.87;1.70;;;13.30;99.90;;;;;;4999277;28;20214;-89
2021/05/25 09:42:19;;;;;;;4.90;1.50;;;12.50;99.90;;;;;;4982447;28;20537;-91
2021/05/25 09:45:00;;;;;;;5.93;1.70;;;12.30;99.90;;;;;;4983026;28;20185;-91
2021/05/25 09:47:40;;;;;;;6.20;2.10;;;12.20;99.90;;;;;;4984058;28;20700;-88
2021/05/25 09:50:08;;;;;;;7.30;2.73;;;12.10;99.90;;;;;;4986847;28;20220;-91
2021/05/25 09:52:35;;;;;;;5.97;3.10;;;12.10;99.90;;;;;;4978394;28;20230;-89
2021/05/25 09:55:09;;;;;;;9.10;3.00;;;12.10;99.90;;;;;;4983954;28;20254;-91
2021/05/25 09:57:45;;;;;;;12.77;3.37;;;12.30;99.90;;;;;;4988922;28;20189;-90
2021/05/25 10:00:23;;;;;;;16.37;3.30;;;12.50;99.90;;;;;;4981991;28;20220;-89
2021/05/25 10:03:12;;;;;;;14.70;4.23;;;12.70;99.90;;;;;;4984382;28;20726;-89
2021/05/25 10:05:38;;;;;;;11.77;3.53;;;12.80;99.90;;;;;;4979508;28;20195;-89
2021/05/25 10:08:05;;;;;;;7.37;3.07;;;13.00;99.90;;;;;;4979392;28;20618;-89
2021/05/25 10:10:33;;;;;;;8.27;2.40;;;13.10;99.90;;;;;;4985001;28;20210;-89
2021/05/25 10:12:59;;;;;;;10.03;2.97;;;13.20;99.90;;;;;;4983483;28;20182;-89
2021/05/25 10:15:27;;;;;;;3.10;1.10;;;13.20;99.90;;;;;;4983087;28;20213;-89
2021/05/25 10:18:10;;;;;;;8.23;2.20;;;12.50;99.90;;;;;;4978677;28;20196;-91
2021/05/25 10:20:36;;;;;;;3.93;1.50;;;11.50;99.90;;;;;;4984441;28;20558;-92
2021/05/25 10:23:05;;;;;;;10.43;2.00;;;10.10;99.90;;;;;;4986852;28;20193;-92
2021/05/25 10:25:34;;;;;;;15.63;13.37;;;9.70;99.90;;;;;;4989883;28;20195;-92
2021/05/25 10:28:05;;;;;;;5.63;5.00;;;9.60;99.90;;;;;;4990963;28;20270;-92
2021/05/25 10:30:37;;;;;;;6.03;3.90;;;9.60;99.90;;;;;;4975732;28;20186;-90
2021/05/25 10:33:06;;;;;;;9.40;4.67;;;9.60;99.90;;;;;;4977260;28;20281;-91
2021/05/25 10:36:06;;;;;;;15.77;12.50;;;9.70;99.90;;;;;;4977795;28;20257;-89
2021/05/25 10:38:43;;;;;;;6.77;2.23;;;9.90;99.90;;;;;;4982396;28;20187;-89
2021/05/25 10:41:24;;;;;;;13.30;7.53;;;10.30;99.90;;;;;;4986805;28;20597;-89
2021/05/25 10:43:54;;;;;;;6.23;3.37;;;10.60;99.90;;;;;;4996779;28;20166;-91
2021/05/25 10:46:22;;;;;;;10.83;5.00;;;11.00;99.90;;;;;;5000469;28;20178;-90
2021/05/25 10:49:12;;;;;;;7.90;4.03;;;11.10;99.90;;;;;;4995745;28;20180;-90
2021/05/25 10:51:48;;;;;;;6.87;3.07;;;11.20;99.90;;;;;;4995555;28;20189;-90
2021/05/25 10:54:27;;;;;;;10.37;6.13;;;11.50;99.90;;;;;;4981591;28;20189;-89
2021/05/25 10:56:54;;;;;;;10.87;3.87;;;11.60;99.90;;;;;;4976152;28;20204;-90
2021/05/25 10:59:21;;;;;;;6.73;3.70;;;11.90;99.90;;;;;;4976007;28;20179;-90
2021/05/25 11:01:57;;;;;;;9.50;3.60;;;12.20;99.90;;;;;;4975656;28;20175;-90
2021/05/25 11:04:37;;;;;;;8.03;4.40;;;12.40;99.90;;;;;;4977634;28;20197;-89
2021/05/25 11:07:40;;;;;;;7.23;3.10;;;12.70;99.90;;;;;;4979961;28;20277;-90
2021/05/25 11:10:37;;;;;;;6.83;3.03;;;13.00;99.90;;;;;;4976274;28;20599;-90
2021/05/25 11:13:16;;;;;;;6.03;3.43;;;13.00;99.90;;;;;;4974323;28;20277;-90
2021/05/25 11:16:13;;;;;;;7.60;3.77;;;13.20;99.90;;;;;;4975697;28;20222;-89
2021/05/25 11:21:37;;;;;;;9.37;4.87;;;13.00;99.90;;;;;;4976569;28;20155;-90
2021/05/25 11:24:32;;;;;;;12.40;3.90;;;13.10;99.90;;;;;;4975390;28;20183;-90
2021/05/25 11:27:11;;;;;;;11.03;4.13;;;13.10;99.90;;;;;;4975597;28;20747;-89
2021/05/25 11:29:56;;;;;;;6.77;3.87;;;13.20;99.90;;;;;;4988095;28;20225;-90
2021/05/25 11:32:24;;;;;;;11.17;4.23;;;13.10;99.90;;;;;;4982267;28;20178;-90
2021/05/25 11:35:08;;;;;;;8.07;3.77;;;13.20;99.90;;;;;;4975172;28;20230;-90
2021/05/25 11:37:40;;;;;;;9.33;4.17;;;13.50;99.90;;;;;;4975193;28;20195;-89
2021/05/25 11:40:12;;;;;;;10.77;4.20;;;13.80;99.90;;;;;;4975105;28;20194;-90
2021/05/25 11:42:38;;;;;;;10.13;4.97;;;14.20;99.90;;;;;;4975172;28;20180;-90
2021/05/25 17:19:35;;;;;;;6.27;1.80;;;15.10;99.90;;;;;;5004246;28;20239;-91
2021/05/25 17:22:01;;;;;;;5.87;1.70;;;15.10;99.90;;;;;;4996800;28;20193;-91
2021/05/25 17:24:38;;;;;;;11.70;2.53;;;15.20;99.90;;;;;;4996440;28;20175;-91
2021/05/25 17:27:07;;;;;;;9.83;1.97;;;15.40;99.90;;;;;;4986390;28;20194;-91
2021/05/25 17:29:32;;;;;;;5.57;1.60;;;15.50;99.90;;;;;;4977186;28;20179;-92
2021/05/25 17:31:58;;;;;;;5.03;1.87;;;15.60;99.90;;;;;;4995098;28;20245;-91
2021/05/25 17:34:24;;;;;;;9.87;2.33;;;15.60;99.90;;;;;;4996112;28;20187;-91
2021/05/25 17:36:50;;;;;;;4.80;2.53;;;15.60;99.90;;;;;;4988307;28;20599;-90
2021/05/25 17:39:19;;;;;;;7.07;2.13;;;15.50;99.90;;;;;;4978829;28;20616;-91
2021/05/25 17:41:45;;;;;;;6.73;2.40;;;15.40;99.90;;;;;;4977772;28;20637;-90
2021/05/25 17:44:11;;;;;;;11.23;2.03;;;15.20;99.90;;;;;;4977343;28;20185;-90
2021/05/25 17:46:42;;;;;;;3.80;1.17;;;14.80;99.90;;;;;;4987093;28;20225;-91
2021/05/25 17:49:18;;;;;;;;;;;;;;;;;;;;;
2021/05/25 18:10:44;;;;;;;3.90;1.90;;;12.70;99.90;;;;;;4987332;28;20209;-91
2021/05/25 18:16:01;;;;;;;7.83;3.27;;;13.00;99.90;;;;;;4974508;28;20229;-91
2021/05/25 18:18:29;;;;;;;8.93;2.40;;;13.20;99.90;;;;;;4963385;28;20174;-91
2021/05/25 18:20:58;;;;;;;6.70;2.13;;;13.40;99.90;;;;;;4961128;28;20179;-90
2021/05/25 18:23:26;;;;;;;3.77;2.30;;;13.40;99.90;;;;;;4957180;29;20235;-90
2021/05/25 18:29:23;;;;;;;9.30;2.80;;;13.50;99.90;;;;;;4972911;28;20186;-91
2021/05/25 18:32:27;;;;;;;3.87;2.20;;;13.50;99.90;;;;;;4958541;28;20643;-92
2021/05/25 18:35:29;;;;;;;4.83;2.40;;;13.60;99.90;;;;;;4976716;28;20249;-90
2021/05/25 18:38:17;;;;;;;7.43;3.00;;;13.70;99.90;;;;;;4947659;28;20207;-90
2021/05/25 18:43:15;;;;;;;23.40;9.00;;;13.70;99.90;;;;;;4940581;29;20184;-90
2021/05/25 18:45:42;;;;;;;34.17;14.00;;;13.70;99.90;;;;;;4948625;28;20183;-90
2021/05/25 18:48:08;;;;;;;5.10;2.93;;;13.70;99.90;;;;;;4960002;28;20277;-90
2021/05/25 18:50:37;;;;;;;6.40;2.70;;;13.60;99.90;;;;;;4960824;28;20182;-91
2021/05/25 18:53:03;;;;;;;10.17;3.07;;;13.70;99.90;;;;;;4960285;28;20275;-90
2021/05/25 18:55:31;;;;;;;10.57;4.40;;;14.00;99.90;;;;;;4959614;28;20634;-89
2021/05/25 18:58:17;;;;;;;10.00;3.87;;;13.80;99.90;;;;;;4960770;28;20636;-90
2021/05/25 19:00:43;;;;;;;9.60;3.07;;;13.80;99.90;;;;;;4959711;28;20194;-90